sensor_id;sensor_type;location;lat;lon;timestamp;temperature;humidity
3488;DHT22;38546;48.170;11.724;2022-12-07T00:01:17;3.40;99.90
3488;DHT22;38546;48.170;11.724;2022-12-07T00:04:12;3.60;99.90
3488;DHT22;38546;48.170;11.724;2022-12-07T00:07:02;3.40;99.90
3488;DHT22;38546;48.170;11.724;2022-12-07T00:09:53;3.40;99.90
3488;DHT22;38546;48.170;11.724;2022-12-07T00:12:43;3.50;99.90
3488;DHT22;38546;48.170;11.724;2022-12-07T00:15:33;3.30;99.90
3488;DHT22;38546;48.170;11.724;2022-12-07T00:18:23;3.30;99.90
3488;DHT22;38546;48.170;11.724;2022-12-07T00:21:20;3.30;99.90
3488;DHT22;38546;48.170;11.724;2022-12-07T00:24:19;3.20;99.90
3488;DHT22;38546;48.170;11.724;2022-12-07T00:27:10;3.30;99.90
3488;DHT22;38546;48.170;11.724;2022-12-07T00:30:00;3.30;99.90
3488;DHT22;38546;48.170;11.724;2022-12-07T00:32:49;3.40;99.90
3488;DHT22;38546;48.170;11.724;2022-12-07T00:35:39;3.30;99.90
3488;DHT22;38546;48.170;11.724;2022-12-07T00:38:32;3.30;99.90
3488;DHT22;38546;48.170;11.724;2022-12-07T00:41:24;3.30;99.90
3488;DHT22;38546;48.170;11.724;2022-12-07T00:44:14;3.20;99.90
3488;DHT22;38546;48.170;11.724;2022-12-07T00:47:03;3.20;99.90
3488;DHT22;38546;48.170;11.724;2022-12-07T00:49:53;3.30;99.90
3488;DHT22;38546;48.170;11.724;2022-12-07T00:52:42;3.30;99.90
3488;DHT22;38546;48.170;11.724;2022-12-07T00:55:36;3.30;99.90
3488;DHT22;38546;48.170;11.724;2022-12-07T00:58:25;3.30;99.90
3488;DHT22;38546;48.170;11.724;2022-12-07T01:01:14;3.20;99.90
3488;DHT22;38546;48.170;11.724;2022-12-07T01:04:04;3.20;99.90
3488;DHT22;38546;48.170;11.724;2022-12-07T01:06:54;3.30;99.90
3488;DHT22;38546;48.170;11.724;2022-12-07T01:09:43;3.30;99.90
3488;DHT22;38546;48.170;11.724;2022-12-07T01:12:32;3.20;99.90
3488;DHT22;38546;48.170;11.724;2022-12-07T01:15:22;3.10;99.90
3488;DHT22;38546;48.170;11.724;2022-12-07T01:18:11;3.10;99.90
3488;DHT22;38546;48.170;11.724;2022-12-07T01:21:16;3.30;99.90
3488;DHT22;38546;48.170;11.724;2022-12-07T01:24:10;3.20;99.90
3488;DHT22;38546;48.170;11.724;2022-12-07T01:27:00;3.10;99.90
3488;DHT22;38546;48.170;11.724;2022-12-07T01:29:51;3.20;99.90
3488;DHT22;38546;48.170;11.724;2022-12-07T01:32:40;3.10;99.90
3488;DHT22;38546;48.170;11.724;2022-12-07T01:35:33;3.10;99.90
3488;DHT22;38546;48.170;11.724;2022-12-07T01:38:23;3.10;99.90
3488;DHT22;38546;48.170;11.724;2022-12-07T01:41:13;3.10;99.90
3488;DHT22;38546;48.170;11.724;2022-12-07T01:44:27;3.00;99.90
3488;DHT22;38546;48.170;11.724;2022-12-07T01:47:21;3.10;99.90
3488;DHT22;38546;48.170;11.724;2022-12-07T01:50:10;3.00;99.90
3488;DHT22;38546;48.170;11.724;2022-12-07T01:53:03;3.00;99.90
3488;DHT22;38546;48.170;11.724;2022-12-07T01:55:55;3.00;99.90
3488;DHT22;38546;48.170;11.724;2022-12-07T01:58:45;3.00;99.90
3488;DHT22;38546;48.170;11.724;2022-12-07T02:01:35;3.00;99.90
3488;DHT22;38546;48.170;11.724;2022-12-07T02:04:24;3.00;99.90
3488;DHT22;38546;48.170;11.724;2022-12-07T02:07:14;3.00;99.90
3488;DHT22;38546;48.170;11.724;2022-12-07T02:11:05;3.10;99.90
3488;DHT22;38546;48.170;11.724;2022-12-07T02:13:56;3.00;99.90
3488;DHT22;38546;48.170;11.724;2022-12-07T02:17:14;3.00;99.90
3488;DHT22;38546;48.170;11.724;2022-12-07T02:26:53;3.00;99.90
3488;DHT22;38546;48.170;11.724;2022-12-07T02:33:44;2.90;99.90
3488;DHT22;38546;48.170;11.724;2022-12-07T02:36:41;3.00;99.90
3488;DHT22;38546;48.170;11.724;2022-12-07T02:44:22;2.90;99.90
3488;DHT22;38546;48.170;11.724;2022-12-07T02:47:16;2.90;99.90
3488;DHT22;38546;48.170;11.724;2022-12-07T02:50:07;3.00;99.90
3488;DHT22;38546;48.170;11.724;2022-12-07T02:52:57;3.00;99.90
3488;DHT22;38546;48.170;11.724;2022-12-07T02:55:46;3.00;99.90
3488;DHT22;38546;48.170;11.724;2022-12-07T02:58:59;3.00;99.90
3488;DHT22;38546;48.170;11.724;2022-12-07T03:05:59;3.00;99.90
3488;DHT22;38546;48.170;11.724;2022-12-07T03:11:58;3.00;99.90
3488;DHT22;38546;48.170;11.724;2022-12-07T03:15:01;3.00;99.90
3488;DHT22;38546;48.170;11.724;2022-12-07T03:17:57;3.00;99.90
3488;DHT22;38546;48.170;11.724;2022-12-07T03:20:48;3.00;99.90
3488;DHT22;38546;48.170;11.724;2022-12-07T03:23:42;3.10;99.90
3488;DHT22;38546;48.170;11.724;2022-12-07T03:26:36;3.00;99.90
3488;DHT22;38546;48.170;11.724;2022-12-07T03:29:36;3.10;99.90
3488;DHT22;38546;48.170;11.724;2022-12-07T03:32:40;3.00;99.90
3488;DHT22;38546;48.170;11.724;2022-12-07T03:35:51;3.10;99.90
3488;DHT22;38546;48.170;11.724;2022-12-07T03:39:03;3.20;99.90
3488;DHT22;38546;48.170;11.724;2022-12-07T03:42:01;3.30;99.90
3488;DHT22;38546;48.170;11.724;2022-12-07T03:44:53;3.10;99.90
3488;DHT22;38546;48.170;11.724;2022-12-07T03:51:21;3.10;99.90
3488;DHT22;38546;48.170;11.724;2022-12-07T03:54:34;3.10;99.90
3488;DHT22;38546;48.170;11.724;2022-12-07T03:57:30;3.10;99.90
3488;DHT22;38546;48.170;11.724;2022-12-07T04:00:20;3.20;99.90
3488;DHT22;38546;48.170;11.724;2022-12-07T04:03:10;3.10;99.90
3488;DHT22;38546;48.170;11.724;2022-12-07T04:06:00;3.10;99.90
3488;DHT22;38546;48.170;11.724;2022-12-07T04:08:50;3.10;99.90
3488;DHT22;38546;48.170;11.724;2022-12-07T04:11:39;3.00;99.90
3488;DHT22;38546;48.170;11.724;2022-12-07T04:14:29;3.00;99.90
3488;DHT22;38546;48.170;11.724;2022-12-07T04:17:18;3.00;99.90
3488;DHT22;38546;48.170;11.724;2022-12-07T04:20:08;3.00;99.90
3488;DHT22;38546;48.170;11.724;2022-12-07T04:22:58;3.00;99.90
3488;DHT22;38546;48.170;11.724;2022-12-07T04:25:48;3.00;99.90
3488;DHT22;38546;48.170;11.724;2022-12-07T04:28:38;3.00;99.90
3488;DHT22;38546;48.170;11.724;2022-12-07T04:31:27;3.00;99.90
3488;DHT22;38546;48.170;11.724;2022-12-07T04:34:17;3.00;99.90
3488;DHT22;38546;48.170;11.724;2022-12-07T04:37:07;3.10;99.90
3488;DHT22;38546;48.170;11.724;2022-12-07T04:39:57;3.10;99.90
3488;DHT22;38546;48.170;11.724;2022-12-07T04:42:46;3.10;99.90
3488;DHT22;38546;48.170;11.724;2022-12-07T04:45:35;3.00;99.90
3488;DHT22;38546;48.170;11.724;2022-12-07T04:48:24;3.10;99.90
3488;DHT22;38546;48.170;11.724;2022-12-07T04:51:17;3.00;99.90
3488;DHT22;38546;48.170;11.724;2022-12-07T04:54:08;3.00;99.90
3488;DHT22;38546;48.170;11.724;2022-12-07T04:56:57;3.00;99.90
3488;DHT22;38546;48.170;11.724;2022-12-07T04:59:46;3.00;99.90
3488;DHT22;38546;48.170;11.724;2022-12-07T05:02:36;3.00;99.90
3488;DHT22;38546;48.170;11.724;2022-12-07T05:05:25;2.90;99.90
3488;DHT22;38546;48.170;11.724;2022-12-07T05:08:15;2.90;99.90
3488;DHT22;38546;48.170;11.724;2022-12-07T05:11:05;2.90;99.90
3488;DHT22;38546;48.170;11.724;2022-12-07T05:13:55;2.70;99.90
3488;DHT22;38546;48.170;11.724;2022-12-07T05:16:47;2.80;99.90
3488;DHT22;38546;48.170;11.724;2022-12-07T05:19:38;2.70;99.90
3488;DHT22;38546;48.170;11.724;2022-12-07T05:22:27;2.70;99.90
3488;DHT22;38546;48.170;11.724;2022-12-07T05:25:17;2.70;99.90
3488;DHT22;38546;48.170;11.724;2022-12-07T05:28:06;2.70;99.90
3488;DHT22;38546;48.170;11.724;2022-12-07T05:30:56;2.70;99.90
3488;DHT22;38546;48.170;11.724;2022-12-07T05:33:45;2.80;99.90
3488;DHT22;38546;48.170;11.724;2022-12-07T05:36:35;2.80;99.90
3488;DHT22;38546;48.170;11.724;2022-12-07T05:39:25;2.80;99.90
3488;DHT22;38546;48.170;11.724;2022-12-07T05:42:14;2.80;99.90
3488;DHT22;38546;48.170;11.724;2022-12-07T05:45:06;2.90;99.90
3488;DHT22;38546;48.170;11.724;2022-12-07T05:47:56;2.90;99.90
3488;DHT22;38546;48.170;11.724;2022-12-07T05:50:48;2.90;99.90
3488;DHT22;38546;48.170;11.724;2022-12-07T05:53:37;2.90;99.90
3488;DHT22;38546;48.170;11.724;2022-12-07T05:56:26;2.80;99.90
3488;DHT22;38546;48.170;11.724;2022-12-07T05:59:16;2.80;99.90
3488;DHT22;38546;48.170;11.724;2022-12-07T06:02:14;2.80;99.90
3488;DHT22;38546;48.170;11.724;2022-12-07T06:05:04;2.90;99.90
3488;DHT22;38546;48.170;11.724;2022-12-07T06:07:55;3.00;99.90
3488;DHT22;38546;48.170;11.724;2022-12-07T06:10:46;3.00;99.90
3488;DHT22;38546;48.170;11.724;2022-12-07T06:13:36;2.90;99.90
3488;DHT22;38546;48.170;11.724;2022-12-07T06:16:25;3.00;99.90
3488;DHT22;38546;48.170;11.724;2022-12-07T06:19:15;3.10;99.90
3488;DHT22;38546;48.170;11.724;2022-12-07T06:22:05;3.10;99.90
3488;DHT22;38546;48.170;11.724;2022-12-07T06:24:54;2.90;99.90
3488;DHT22;38546;48.170;11.724;2022-12-07T06:27:44;2.90;99.90
3488;DHT22;38546;48.170;11.724;2022-12-07T06:30:34;2.90;99.90
3488;DHT22;38546;48.170;11.724;2022-12-07T06:33:22;2.80;99.90
3488;DHT22;38546;48.170;11.724;2022-12-07T06:36:12;2.80;99.90
3488;DHT22;38546;48.170;11.724;2022-12-07T06:39:01;2.90;99.90
3488;DHT22;38546;48.170;11.724;2022-12-07T06:41:51;2.90;99.90
3488;DHT22;38546;48.170;11.724;2022-12-07T06:44:41;3.30;99.90
3488;DHT22;38546;48.170;11.724;2022-12-07T06:47:30;3.10;99.90
3488;DHT22;38546;48.170;11.724;2022-12-07T06:50:20;3.20;99.90
3488;DHT22;38546;48.170;11.724;2022-12-07T06:53:10;3.00;99.90
3488;DHT22;38546;48.170;11.724;2022-12-07T06:55:59;3.00;99.90
3488;DHT22;38546;48.170;11.724;2022-12-07T06:58:49;3.00;99.90
3488;DHT22;38546;48.170;11.724;2022-12-07T07:01:38;2.90;99.90
3488;DHT22;38546;48.170;11.724;2022-12-07T07:04:27;3.10;99.90
3488;DHT22;38546;48.170;11.724;2022-12-07T07:07:17;3.10;99.90
3488;DHT22;38546;48.170;11.724;2022-12-07T07:10:07;3.00;99.90
3488;DHT22;38546;48.170;11.724;2022-12-07T07:12:57;2.90;99.90
3488;DHT22;38546;48.170;11.724;2022-12-07T07:15:46;3.10;99.90
3488;DHT22;38546;48.170;11.724;2022-12-07T07:18:36;3.10;99.90
3488;DHT22;38546;48.170;11.724;2022-12-07T07:21:25;3.10;99.90
3488;DHT22;38546;48.170;11.724;2022-12-07T07:24:14;3.30;99.90
3488;DHT22;38546;48.170;11.724;2022-12-07T07:27:03;3.40;99.90
3488;DHT22;38546;48.170;11.724;2022-12-07T07:29:53;3.40;99.90
3488;DHT22;38546;48.170;11.724;2022-12-07T07:32:42;3.30;99.90
3488;DHT22;38546;48.170;11.724;2022-12-07T07:35:33;3.30;99.90
3488;DHT22;38546;48.170;11.724;2022-12-07T07:38:23;3.20;99.90
3488;DHT22;38546;48.170;11.724;2022-12-07T07:41:12;3.30;99.90
3488;DHT22;38546;48.170;11.724;2022-12-07T07:44:01;3.40;99.90
3488;DHT22;38546;48.170;11.724;2022-12-07T07:46:51;3.40;99.90
3488;DHT22;38546;48.170;11.724;2022-12-07T07:49:39;3.30;99.90
3488;DHT22;38546;48.170;11.724;2022-12-07T07:52:29;3.40;99.90
3488;DHT22;38546;48.170;11.724;2022-12-07T07:55:19;3.40;99.90
3488;DHT22;38546;48.170;11.724;2022-12-07T07:58:08;3.40;99.90
3488;DHT22;38546;48.170;11.724;2022-12-07T08:00:57;3.40;99.90
3488;DHT22;38546;48.170;11.724;2022-12-07T08:03:52;3.60;99.90
3488;DHT22;38546;48.170;11.724;2022-12-07T08:06:42;3.60;99.90
3488;DHT22;38546;48.170;11.724;2022-12-07T08:09:31;3.70;99.90
3488;DHT22;38546;48.170;11.724;2022-12-07T08:12:21;3.70;99.90
3488;DHT22;38546;48.170;11.724;2022-12-07T08:15:10;3.60;99.90
3488;DHT22;38546;48.170;11.724;2022-12-07T08:17:59;3.60;99.90
3488;DHT22;38546;48.170;11.724;2022-12-07T08:20:49;3.50;99.90
3488;DHT22;38546;48.170;11.724;2022-12-07T08:23:38;3.60;99.90
3488;DHT22;38546;48.170;11.724;2022-12-07T08:26:28;3.70;99.90
3488;DHT22;38546;48.170;11.724;2022-12-07T08:29:18;3.90;99.90
3488;DHT22;38546;48.170;11.724;2022-12-07T08:32:08;3.80;99.90
3488;DHT22;38546;48.170;11.724;2022-12-07T08:34:58;3.90;99.90
3488;DHT22;38546;48.170;11.724;2022-12-07T08:37:48;4.00;99.90
3488;DHT22;38546;48.170;11.724;2022-12-07T08:40:37;4.00;99.90
3488;DHT22;38546;48.170;11.724;2022-12-07T08:43:27;3.70;99.90
3488;DHT22;38546;48.170;11.724;2022-12-07T08:46:25;3.70;99.90
3488;DHT22;38546;48.170;11.724;2022-12-07T08:49:30;3.80;99.90
3488;DHT22;38546;48.170;11.724;2022-12-07T08:52:30;3.90;99.90
3488;DHT22;38546;48.170;11.724;2022-12-07T08:55:20;4.00;99.90
3488;DHT22;38546;48.170;11.724;2022-12-07T08:58:10;4.10;99.90
3488;DHT22;38546;48.170;11.724;2022-12-07T09:00:59;4.00;99.90
3488;DHT22;38546;48.170;11.724;2022-12-07T09:03:49;3.80;99.90
3488;DHT22;38546;48.170;11.724;2022-12-07T09:06:39;4.10;99.90
3488;DHT22;38546;48.170;11.724;2022-12-07T09:09:29;4.10;99.90
3488;DHT22;38546;48.170;11.724;2022-12-07T09:12:19;4.10;99.90
3488;DHT22;38546;48.170;11.724;2022-12-07T09:15:09;4.30;99.90
3488;DHT22;38546;48.170;11.724;2022-12-07T09:17:59;4.00;99.90
3488;DHT22;38546;48.170;11.724;2022-12-07T09:20:48;4.20;99.90
3488;DHT22;38546;48.170;11.724;2022-12-07T09:23:37;4.10;99.90
3488;DHT22;38546;48.170;11.724;2022-12-07T09:26:27;4.20;99.90
3488;DHT22;38546;48.170;11.724;2022-12-07T09:29:17;4.20;99.90
3488;DHT22;38546;48.170;11.724;2022-12-07T09:32:06;4.50;99.90
3488;DHT22;38546;48.170;11.724;2022-12-07T09:34:56;4.30;99.90
3488;DHT22;38546;48.170;11.724;2022-12-07T09:37:45;4.20;99.90
3488;DHT22;38546;48.170;11.724;2022-12-07T09:40:38;4.10;99.90
3488;DHT22;38546;48.170;11.724;2022-12-07T09:43:28;4.20;99.90
3488;DHT22;38546;48.170;11.724;2022-12-07T09:46:19;4.20;99.90
3488;DHT22;38546;48.170;11.724;2022-12-07T09:49:13;4.30;99.90
3488;DHT22;38546;48.170;11.724;2022-12-07T09:52:24;4.60;99.90
3488;DHT22;38546;48.170;11.724;2022-12-07T09:55:26;4.70;99.90
3488;DHT22;38546;48.170;11.724;2022-12-07T09:58:29;4.70;99.90
3488;DHT22;38546;48.170;11.724;2022-12-07T10:01:21;4.80;99.90
3488;DHT22;38546;48.170;11.724;2022-12-07T10:04:20;4.80;99.90
3488;DHT22;38546;48.170;11.724;2022-12-07T10:07:11;4.90;99.90
3488;DHT22;38546;48.170;11.724;2022-12-07T10:10:03;4.90;99.90
3488;DHT22;38546;48.170;11.724;2022-12-07T10:13:02;4.90;99.90
3488;DHT22;38546;48.170;11.724;2022-12-07T10:15:57;4.90;99.90
3488;DHT22;38546;48.170;11.724;2022-12-07T10:18:47;4.90;99.90
3488;DHT22;38546;48.170;11.724;2022-12-07T10:21:36;4.80;99.90
3488;DHT22;38546;48.170;11.724;2022-12-07T10:24:25;4.80;99.90
3488;DHT22;38546;48.170;11.724;2022-12-07T10:27:26;4.90;99.90
3488;DHT22;38546;48.170;11.724;2022-12-07T10:30:21;5.10;99.90
3488;DHT22;38546;48.170;11.724;2022-12-07T10:33:32;5.20;99.90
3488;DHT22;38546;48.170;11.724;2022-12-07T10:36:41;5.40;99.90
3488;DHT22;38546;48.170;11.724;2022-12-07T10:39:43;5.30;99.90
3488;DHT22;38546;48.170;11.724;2022-12-07T10:42:35;5.30;99.90
3488;DHT22;38546;48.170;11.724;2022-12-07T10:45:24;5.40;99.90
3488;DHT22;38546;48.170;11.724;2022-12-07T10:48:53;5.30;99.90
3488;DHT22;38546;48.170;11.724;2022-12-07T10:55:11;5.50;99.90
3488;DHT22;38546;48.170;11.724;2022-12-07T10:58:24;5.60;99.90
3488;DHT22;38546;48.170;11.724;2022-12-07T11:02:06;5.90;99.90
3488;DHT22;38546;48.170;11.724;2022-12-07T11:05:49;5.90;99.90
3488;DHT22;38546;48.170;11.724;2022-12-07T11:09:27;5.90;99.90
3488;DHT22;38546;48.170;11.724;2022-12-07T11:25:32;5.70;99.90
3488;DHT22;38546;48.170;11.724;2022-12-07T11:28:50;6.20;99.90
3488;DHT22;38546;48.170;11.724;2022-12-07T11:35:43;6.20;99.90
3488;DHT22;38546;48.170;11.724;2022-12-07T11:38:55;5.90;99.90
3488;DHT22;38546;48.170;11.724;2022-12-07T11:41:57;5.90;99.90
3488;DHT22;38546;48.170;11.724;2022-12-07T11:45:18;5.70;99.90
3488;DHT22;38546;48.170;11.724;2022-12-07T11:48:32;5.70;99.90
3488;DHT22;38546;48.170;11.724;2022-12-07T11:51:24;6.10;99.90
3488;DHT22;38546;48.170;11.724;2022-12-07T11:54:19;6.20;99.90
3488;DHT22;38546;48.170;11.724;2022-12-07T11:57:28;6.10;99.90
3488;DHT22;38546;48.170;11.724;2022-12-07T12:00:32;6.10;99.90
3488;DHT22;38546;48.170;11.724;2022-12-07T12:03:30;5.90;99.90
3488;DHT22;38546;48.170;11.724;2022-12-07T12:06:22;5.90;99.90
3488;DHT22;38546;48.170;11.724;2022-12-07T12:16:04;5.80;99.90
3488;DHT22;38546;48.170;11.724;2022-12-07T12:19:33;5.70;99.90
3488;DHT22;38546;48.170;11.724;2022-12-07T12:22:42;5.80;99.90
3488;DHT22;38546;48.170;11.724;2022-12-07T12:25:41;5.60;99.90
3488;DHT22;38546;48.170;11.724;2022-12-07T12:28:41;5.60;99.90
3488;DHT22;38546;48.170;11.724;2022-12-07T12:31:40;5.60;99.90
3488;DHT22;38546;48.170;11.724;2022-12-07T12:42:20;5.30;99.90
3488;DHT22;38546;48.170;11.724;2022-12-07T12:45:26;5.30;99.90
3488;DHT22;38546;48.170;11.724;2022-12-07T12:48:36;5.40;99.90
3488;DHT22;38546;48.170;11.724;2022-12-07T12:51:40;5.40;99.90
3488;DHT22;38546;48.170;11.724;2022-12-07T12:54:33;5.50;99.90
3488;DHT22;38546;48.170;11.724;2022-12-07T12:57:30;5.50;99.90
3488;DHT22;38546;48.170;11.724;2022-12-07T13:00:23;5.40;99.90
3488;DHT22;38546;48.170;11.724;2022-12-07T13:03:28;5.30;99.90
3488;DHT22;38546;48.170;11.724;2022-12-07T13:06:52;5.40;99.90
3488;DHT22;38546;48.170;11.724;2022-12-07T13:09:43;5.30;99.90
3488;DHT22;38546;48.170;11.724;2022-12-07T13:12:40;5.40;99.90
3488;DHT22;38546;48.170;11.724;2022-12-07T13:15:50;5.40;99.90
3488;DHT22;38546;48.170;11.724;2022-12-07T13:18:42;5.40;99.90
3488;DHT22;38546;48.170;11.724;2022-12-07T13:21:50;5.20;99.90
3488;DHT22;38546;48.170;11.724;2022-12-07T13:24:40;5.20;99.90
3488;DHT22;38546;48.170;11.724;2022-12-07T13:27:30;5.20;99.90
3488;DHT22;38546;48.170;11.724;2022-12-07T13:30:21;5.20;99.90
3488;DHT22;38546;48.170;11.724;2022-12-07T13:33:12;5.20;99.90
3488;DHT22;38546;48.170;11.724;2022-12-07T13:36:02;5.20;99.90
3488;DHT22;38546;48.170;11.724;2022-12-07T13:40:26;5.40;99.90
3488;DHT22;38546;48.170;11.724;2022-12-07T13:43:16;5.30;99.90
3488;DHT22;38546;48.170;11.724;2022-12-07T13:46:08;5.40;99.90
3488;DHT22;38546;48.170;11.724;2022-12-07T13:48:58;5.40;99.90
3488;DHT22;38546;48.170;11.724;2022-12-07T13:51:48;5.40;99.90
3488;DHT22;38546;48.170;11.724;2022-12-07T13:55:08;5.50;99.90
3488;DHT22;38546;48.170;11.724;2022-12-07T13:58:03;5.40;99.90
3488;DHT22;38546;48.170;11.724;2022-12-07T14:00:52;5.40;99.90
3488;DHT22;38546;48.170;11.724;2022-12-07T14:03:42;5.40;99.90
3488;DHT22;38546;48.170;11.724;2022-12-07T14:06:32;5.30;99.90
3488;DHT22;38546;48.170;11.724;2022-12-07T14:09:26;5.20;99.90
3488;DHT22;38546;48.170;11.724;2022-12-07T14:12:16;5.20;99.90
3488;DHT22;38546;48.170;11.724;2022-12-07T14:15:20;5.10;99.90
3488;DHT22;38546;48.170;11.724;2022-12-07T14:18:29;5.00;99.90
3488;DHT22;38546;48.170;11.724;2022-12-07T14:21:26;5.00;99.90
3488;DHT22;38546;48.170;11.724;2022-12-07T14:24:19;5.00;99.90
3488;DHT22;38546;48.170;11.724;2022-12-07T14:27:23;5.00;99.90
3488;DHT22;38546;48.170;11.724;2022-12-07T14:30:16;4.90;99.90
3488;DHT22;38546;48.170;11.724;2022-12-07T14:33:08;5.20;99.90
3488;DHT22;38546;48.170;11.724;2022-12-07T14:35:58;5.20;99.90
3488;DHT22;38546;48.170;11.724;2022-12-07T14:38:48;5.10;99.90
3488;DHT22;38546;48.170;11.724;2022-12-07T14:41:38;4.90;99.90
3488;DHT22;38546;48.170;11.724;2022-12-07T14:44:39;4.80;99.90
3488;DHT22;38546;48.170;11.724;2022-12-07T14:47:28;4.80;99.90
3488;DHT22;38546;48.170;11.724;2022-12-07T14:50:20;4.60;99.90
3488;DHT22;38546;48.170;11.724;2022-12-07T14:53:14;4.50;99.90
3488;DHT22;38546;48.170;11.724;2022-12-07T14:56:05;4.30;99.90
3488;DHT22;38546;48.170;11.724;2022-12-07T14:58:54;4.20;99.90
3488;DHT22;38546;48.170;11.724;2022-12-07T15:01:44;4.10;99.90
3488;DHT22;38546;48.170;11.724;2022-12-07T15:04:34;4.00;99.90
3488;DHT22;38546;48.170;11.724;2022-12-07T15:07:23;3.90;99.90
3488;DHT22;38546;48.170;11.724;2022-12-07T15:10:24;3.90;99.90
3488;DHT22;38546;48.170;11.724;2022-12-07T15:13:19;3.80;99.90
3488;DHT22;38546;48.170;11.724;2022-12-07T15:16:27;3.80;99.90
3488;DHT22;38546;48.170;11.724;2022-12-07T15:19:19;3.60;99.90
3488;DHT22;38546;48.170;11.724;2022-12-07T15:22:14;3.50;99.90
3488;DHT22;38546;48.170;11.724;2022-12-07T15:25:04;3.40;99.90
3488;DHT22;38546;48.170;11.724;2022-12-07T15:27:55;3.40;99.90
3488;DHT22;38546;48.170;11.724;2022-12-07T15:30:44;3.40;99.90
3488;DHT22;38546;48.170;11.724;2022-12-07T15:33:33;3.30;99.90
3488;DHT22;38546;48.170;11.724;2022-12-07T15:36:25;3.50;99.90
3488;DHT22;38546;48.170;11.724;2022-12-07T15:39:16;3.50;99.90
3488;DHT22;38546;48.170;11.724;2022-12-07T15:42:05;3.40;99.90
3488;DHT22;38546;48.170;11.724;2022-12-07T15:44:54;3.40;99.90
3488;DHT22;38546;48.170;11.724;2022-12-07T15:47:53;3.30;99.90
3488;DHT22;38546;48.170;11.724;2022-12-07T15:50:44;3.30;99.90
3488;DHT22;38546;48.170;11.724;2022-12-07T15:53:34;3.20;99.90
3488;DHT22;38546;48.170;11.724;2022-12-07T15:56:24;3.20;99.90
3488;DHT22;38546;48.170;11.724;2022-12-07T15:59:13;3.20;99.90
3488;DHT22;38546;48.170;11.724;2022-12-07T16:02:02;3.20;99.90
3488;DHT22;38546;48.170;11.724;2022-12-07T16:04:52;3.10;99.90
3488;DHT22;38546;48.170;11.724;2022-12-07T16:07:41;3.10;99.90
3488;DHT22;38546;48.170;11.724;2022-12-07T16:10:31;3.10;99.90
3488;DHT22;38546;48.170;11.724;2022-12-07T16:13:20;3.00;99.90
3488;DHT22;38546;48.170;11.724;2022-12-07T16:16:13;3.00;99.90
3488;DHT22;38546;48.170;11.724;2022-12-07T16:19:03;2.90;99.90
3488;DHT22;38546;48.170;11.724;2022-12-07T16:21:52;2.90;99.90
3488;DHT22;38546;48.170;11.724;2022-12-07T16:24:41;2.90;99.90
3488;DHT22;38546;48.170;11.724;2022-12-07T16:27:30;2.90;99.90
3488;DHT22;38546;48.170;11.724;2022-12-07T16:30:19;3.00;99.90
3488;DHT22;38546;48.170;11.724;2022-12-07T16:33:09;3.00;99.90
3488;DHT22;38546;48.170;11.724;2022-12-07T16:35:58;2.90;99.90
3488;DHT22;38546;48.170;11.724;2022-12-07T16:38:48;2.90;99.90
3488;DHT22;38546;48.170;11.724;2022-12-07T16:41:37;2.90;99.90
3488;DHT22;38546;48.170;11.724;2022-12-07T16:44:27;2.90;99.90
3488;DHT22;38546;48.170;11.724;2022-12-07T16:47:16;3.00;99.90
3488;DHT22;38546;48.170;11.724;2022-12-07T16:50:06;3.00;99.90
3488;DHT22;38546;48.170;11.724;2022-12-07T16:52:56;3.00;99.90
3488;DHT22;38546;48.170;11.724;2022-12-07T16:55:46;2.90;99.90
3488;DHT22;38546;48.170;11.724;2022-12-07T16:58:35;2.90;99.90
3488;DHT22;38546;48.170;11.724;2022-12-07T17:01:25;2.80;99.90
3488;DHT22;38546;48.170;11.724;2022-12-07T17:04:16;2.80;99.90
3488;DHT22;38546;48.170;11.724;2022-12-07T17:07:06;2.70;99.90
3488;DHT22;38546;48.170;11.724;2022-12-07T17:09:56;2.70;99.90
3488;DHT22;38546;48.170;11.724;2022-12-07T17:12:46;2.70;99.90
3488;DHT22;38546;48.170;11.724;2022-12-07T17:15:35;2.70;99.90
3488;DHT22;38546;48.170;11.724;2022-12-07T17:18:30;2.70;99.90
3488;DHT22;38546;48.170;11.724;2022-12-07T17:21:21;2.70;99.90
3488;DHT22;38546;48.170;11.724;2022-12-07T17:24:14;2.70;99.90
3488;DHT22;38546;48.170;11.724;2022-12-07T17:27:04;2.70;99.90
3488;DHT22;38546;48.170;11.724;2022-12-07T17:29:53;2.70;99.90
3488;DHT22;38546;48.170;11.724;2022-12-07T17:32:43;2.70;99.90
3488;DHT22;38546;48.170;11.724;2022-12-07T17:35:32;2.70;99.90
3488;DHT22;38546;48.170;11.724;2022-12-07T17:38:22;2.70;99.90
3488;DHT22;38546;48.170;11.724;2022-12-07T17:41:13;2.70;99.90
3488;DHT22;38546;48.170;11.724;2022-12-07T17:44:22;2.60;99.90
3488;DHT22;38546;48.170;11.724;2022-12-07T17:47:12;2.60;99.90
3488;DHT22;38546;48.170;11.724;2022-12-07T17:50:05;2.50;99.90
3488;DHT22;38546;48.170;11.724;2022-12-07T17:52:55;2.50;99.90
3488;DHT22;38546;48.170;11.724;2022-12-07T17:55:59;2.40;99.90
3488;DHT22;38546;48.170;11.724;2022-12-07T17:58:48;2.40;99.90
3488;DHT22;38546;48.170;11.724;2022-12-07T18:01:38;2.30;99.90
3488;DHT22;38546;48.170;11.724;2022-12-07T18:04:28;2.30;99.90
3488;DHT22;38546;48.170;11.724;2022-12-07T18:07:18;2.20;99.90
3488;DHT22;38546;48.170;11.724;2022-12-07T18:10:08;2.20;99.90
3488;DHT22;38546;48.170;11.724;2022-12-07T18:12:59;2.20;99.90
3488;DHT22;38546;48.170;11.724;2022-12-07T18:16:18;2.20;99.90
3488;DHT22;38546;48.170;11.724;2022-12-07T18:19:13;2.10;99.90
3488;DHT22;38546;48.170;11.724;2022-12-07T18:22:03;2.10;99.90
3488;DHT22;38546;48.170;11.724;2022-12-07T18:24:53;2.10;99.90
3488;DHT22;38546;48.170;11.724;2022-12-07T18:27:43;2.10;99.90
3488;DHT22;38546;48.170;11.724;2022-12-07T18:30:32;2.10;99.90
3488;DHT22;38546;48.170;11.724;2022-12-07T18:33:21;2.10;99.90
3488;DHT22;38546;48.170;11.724;2022-12-07T18:36:10;2.10;99.90
3488;DHT22;38546;48.170;11.724;2022-12-07T18:39:05;2.20;99.90
3488;DHT22;38546;48.170;11.724;2022-12-07T18:41:55;2.20;99.90
3488;DHT22;38546;48.170;11.724;2022-12-07T18:44:45;2.10;99.90
3488;DHT22;38546;48.170;11.724;2022-12-07T18:47:34;2.10;99.90
3488;DHT22;38546;48.170;11.724;2022-12-07T18:50:23;2.20;99.90
3488;DHT22;38546;48.170;11.724;2022-12-07T18:53:13;2.20;99.90
3488;DHT22;38546;48.170;11.724;2022-12-07T18:56:17;2.20;99.90
3488;DHT22;38546;48.170;11.724;2022-12-07T18:59:12;2.30;99.90
3488;DHT22;38546;48.170;11.724;2022-12-07T19:02:20;2.30;99.90
3488;DHT22;38546;48.170;11.724;2022-12-07T19:05:09;2.30;99.90
3488;DHT22;38546;48.170;11.724;2022-12-07T19:08:00;2.30;99.90
3488;DHT22;38546;48.170;11.724;2022-12-07T19:10:50;2.40;99.90
3488;DHT22;38546;48.170;11.724;2022-12-07T19:13:40;2.50;99.90
3488;DHT22;38546;48.170;11.724;2022-12-07T19:16:29;2.50;99.90
3488;DHT22;38546;48.170;11.724;2022-12-07T19:19:21;2.40;99.90
3488;DHT22;38546;48.170;11.724;2022-12-07T19:22:14;2.50;99.90
3488;DHT22;38546;48.170;11.724;2022-12-07T19:25:05;2.40;99.90
3488;DHT22;38546;48.170;11.724;2022-12-07T19:27:54;2.40;99.90
3488;DHT22;38546;48.170;11.724;2022-12-07T19:30:43;2.50;99.90
3488;DHT22;38546;48.170;11.724;2022-12-07T19:33:32;2.50;99.90
3488;DHT22;38546;48.170;11.724;2022-12-07T19:36:21;2.50;99.90